createdAt,value
2023-04-21T05:03:21.672Z,38.39
2023-04-21T05:04:21.845Z,37.28
2023-04-21T05:05:22.431Z,37.08
2023-04-21T05:06:21.438Z,37.03
2023-04-21T05:07:21.484Z,36.93
2023-04-21T05:08:22.520Z,36.90
2023-04-21T05:09:21.548Z,36.78
2023-04-21T05:10:21.556Z,36.71
2023-04-21T05:11:21.552Z,36.77
2023-04-21T05:12:22.593Z,36.75
2023-04-21T05:13:22.666Z,36.74
2023-04-21T05:14:22.737Z,36.74
2023-04-21T05:15:22.771Z,36.71
2023-04-21T05:16:21.862Z,36.63
2023-04-21T05:17:21.878Z,36.60
2023-04-21T05:18:22.910Z,36.56
2023-04-21T05:19:21.926Z,36.63
2023-04-21T05:20:22.972Z,36.76
2023-04-21T05:21:22.016Z,36.71
2023-04-21T05:22:23.043Z,36.40
2023-04-21T05:23:23.081Z,36.18
2023-04-21T05:24:23.144Z,36.38
2023-04-21T05:25:23.175Z,36.44
2023-04-21T05:26:23.241Z,36.58
2023-04-21T05:27:22.285Z,36.30
2023-04-21T05:28:23.306Z,35.81
2023-04-21T05:29:23.392Z,36.23
2023-04-21T05:30:23.387Z,35.92
2023-04-21T05:31:22.451Z,36.13
2023-04-21T05:32:22.923Z,36.09
2023-04-21T05:33:23.549Z,36.31
2023-04-21T05:34:23.573Z,36.27
2023-04-21T05:35:23.616Z,36.54
2023-04-21T05:36:23.788Z,36.28
2023-04-21T05:37:23.699Z,36.22
2023-04-21T05:38:23.734Z,36.24
2023-04-21T05:39:22.829Z,36.16
2023-04-21T05:40:23.838Z,36.79
2023-04-21T05:41:23.945Z,36.79
2023-04-21T05:42:23.948Z,36.70
2023-04-21T05:43:23.964Z,36.68
2023-04-21T05:44:23.995Z,36.53
2023-04-21T05:45:24.080Z,36.45
2023-04-21T05:46:23.242Z,36.56
2023-04-21T05:47:23.134Z,36.64
2023-04-21T05:48:24.066Z,36.72
2023-04-21T05:49:24.077Z,36.60
2023-04-21T05:50:24.150Z,36.98
2023-04-21T05:51:23.499Z,36.75
2023-04-21T05:52:23.542Z,36.98
2023-04-21T05:53:24.514Z,37.00
2023-04-21T05:54:24.340Z,37.08
2023-04-21T05:55:23.661Z,36.67
2023-04-21T05:56:23.427Z,36.87
2023-04-21T05:57:24.436Z,36.76
2023-04-21T05:58:23.487Z,37.32
2023-04-21T05:59:23.468Z,37.28
2023-04-21T06:00:23.450Z,37.59
2023-04-21T06:01:24.590Z,38.29
2023-04-21T06:02:23.766Z,38.08
2023-04-21T06:03:24.911Z,37.88
2023-04-21T06:04:24.796Z,37.81
2023-04-21T06:05:24.638Z,38.00
2023-04-21T06:06:24.544Z,38.42
2023-04-21T06:07:24.598Z,38.11
2023-04-21T06:08:23.619Z,38.50
2023-04-21T06:09:24.659Z,38.21
2023-04-21T06:10:24.684Z,38.80
2023-04-21T06:11:23.716Z,38.53
2023-04-21T06:12:24.747Z,38.62
2023-04-21T06:13:24.771Z,38.96
2023-04-21T06:14:24.776Z,39.34
2023-04-21T06:15:24.838Z,39.11
2023-04-21T06:16:24.868Z,39.16
2023-04-21T06:17:23.888Z,39.53
2023-04-21T06:18:25.097Z,39.68
2023-04-21T06:19:23.803Z,39.75
2023-04-21T06:20:24.862Z,40.14
2023-04-21T06:21:24.817Z,40.00
2023-04-21T06:22:24.840Z,40.48
2023-04-21T06:23:23.825Z,40.42
2023-04-21T06:24:23.870Z,40.43
2023-04-21T06:25:24.917Z,40.50
2023-04-21T06:26:23.939Z,40.43
2023-04-21T06:27:24.227Z,40.21
2023-04-21T06:28:25.056Z,40.83
2023-04-21T06:29:24.568Z,41.02
2023-04-21T06:30:25.397Z,40.74
2023-04-21T06:31:25.296Z,40.92
2023-04-21T06:32:24.256Z,41.29
2023-04-21T06:33:25.372Z,41.15
2023-04-21T06:34:24.438Z,40.84
2023-04-21T06:35:25.480Z,40.80
2023-04-21T06:36:24.469Z,41.15
2023-04-21T06:37:24.442Z,41.52
2023-04-21T06:38:24.527Z,41.05
2023-04-21T06:39:24.622Z,41.39
2023-04-21T06:40:24.591Z,41.65
2023-04-21T06:41:24.946Z,41.61
2023-04-21T06:42:25.657Z,42.01
2023-04-21T06:43:24.639Z,42.21
2023-04-21T06:44:25.680Z,42.10
2023-04-21T06:45:25.710Z,41.81
2023-04-21T06:46:24.789Z,41.71
2023-04-21T06:47:26.069Z,41.91
2023-04-21T06:48:24.894Z,41.66
2023-04-21T06:49:25.838Z,41.46
2023-04-21T06:50:25.915Z,41.94
2023-04-21T06:51:25.967Z,41.95
2023-04-21T06:52:24.876Z,41.53
2023-04-21T06:53:26.089Z,41.37
2023-04-21T06:54:24.997Z,41.43
2023-04-21T06:55:26.017Z,41.51
2023-04-21T06:56:25.568Z,41.60
2023-04-21T06:57:26.188Z,41.72
2023-04-21T06:58:26.158Z,41.84
2023-04-21T06:59:26.258Z,41.89
2023-04-21T07:00:25.306Z,41.79
2023-04-21T07:01:26.432Z,41.90
2023-04-21T07:02:26.478Z,41.80
2023-04-21T07:03:26.519Z,41.88
2023-04-21T07:04:26.567Z,42.00
2023-04-21T07:05:25.550Z,41.82
2023-04-21T07:06:25.598Z,41.76
2023-04-21T07:07:26.618Z,41.78
2023-04-21T07:08:25.901Z,41.87
2023-04-21T07:09:26.703Z,41.78
2023-04-21T07:10:26.917Z,41.76
2023-04-21T07:11:25.731Z,41.77
2023-04-21T07:12:25.750Z,41.87
2023-04-21T07:13:25.759Z,41.76
2023-04-21T07:14:25.767Z,41.78
2023-04-21T07:15:26.791Z,41.61
2023-04-21T07:16:26.817Z,41.66
2023-04-21T07:17:26.813Z,41.73
2023-04-21T07:18:26.806Z,41.66
2023-04-21T07:19:26.810Z,41.65
2023-04-21T07:20:26.971Z,41.68
2023-04-21T07:21:26.781Z,41.63
2023-04-21T07:22:25.772Z,41.57
2023-04-21T07:23:25.776Z,41.59
2023-04-21T07:24:25.784Z,41.49
2023-04-21T07:25:25.814Z,41.48
2023-04-21T07:26:26.810Z,41.39
2023-04-21T07:27:26.810Z,41.54
2023-04-21T07:28:25.801Z,41.37
2023-04-21T07:29:26.819Z,41.49
2023-04-21T07:30:26.916Z,41.31
2023-04-21T07:31:26.883Z,41.31
2023-04-21T07:32:26.927Z,41.28
2023-04-21T07:33:26.812Z,41.23
2023-04-21T07:34:25.900Z,41.12
2023-04-21T07:35:26.924Z,41.06
2023-04-21T07:36:25.923Z,40.91
2023-04-21T07:37:26.930Z,40.89
2023-04-21T07:38:26.946Z,40.86
2023-04-21T07:39:27.004Z,40.89
2023-04-21T07:40:27.111Z,41.14
2023-04-21T07:41:27.111Z,41.15
2023-04-21T07:42:27.299Z,41.24
2023-04-21T07:43:27.208Z,41.35
2023-04-21T07:44:27.338Z,41.28
2023-04-21T07:45:26.342Z,41.30
2023-04-21T07:46:27.468Z,41.28
2023-04-21T07:47:27.501Z,40.82
2023-04-21T07:48:27.543Z,40.21
2023-04-21T07:49:26.579Z,39.75
2023-04-21T07:50:26.708Z,39.92
2023-04-21T07:51:27.120Z,39.45
2023-04-21T07:52:27.559Z,39.50
2023-04-21T07:53:27.584Z,39.28
2023-04-21T07:54:27.651Z,38.99
2023-04-21T07:55:27.614Z,38.68
2023-04-21T07:56:27.656Z,38.55
2023-04-21T07:57:27.661Z,38.22
2023-04-21T07:58:26.670Z,38.18
2023-04-21T07:59:27.700Z,38.26
2023-04-21T08:00:27.750Z,38.06
2023-04-21T08:01:26.811Z,38.05
2023-04-21T08:02:26.881Z,37.81
2023-04-21T08:03:27.094Z,38.00
2023-04-21T08:04:26.932Z,38.05
2023-04-21T08:05:31.345Z,37.71
2023-04-21T08:06:28.100Z,37.64
2023-04-21T08:07:27.937Z,37.47
2023-04-21T08:08:28.784Z,37.29
2023-04-21T08:09:26.936Z,37.38
2023-04-21T08:10:27.880Z,37.16
2023-04-21T08:11:27.161Z,37.07
2023-04-21T08:12:26.860Z,37.08
2023-04-21T08:13:27.947Z,36.91
2023-04-21T08:14:27.004Z,36.92
2023-04-21T08:15:26.848Z,37.00
2023-04-21T08:16:26.877Z,36.76
2023-04-21T08:17:28.128Z,36.67
2023-04-21T08:18:26.872Z,36.80
2023-04-21T08:19:26.822Z,36.57
2023-04-21T08:20:27.826Z,36.69
2023-04-21T08:21:29.465Z,36.77
2023-04-21T08:22:26.870Z,37.14
2023-04-21T08:23:27.851Z,37.09
2023-04-21T08:24:27.801Z,37.03
2023-04-21T08:25:27.762Z,37.01
2023-04-21T08:26:26.877Z,37.02
2023-04-21T08:27:27.775Z,36.89
2023-04-21T08:28:27.755Z,36.87
2023-04-21T08:29:26.768Z,36.78
2023-04-21T08:30:27.822Z,36.68
2023-04-21T08:31:27.845Z,36.56
2023-04-21T08:32:26.818Z,36.50
2023-04-21T08:33:26.753Z,36.35
2023-04-21T08:34:28.001Z,36.42
2023-04-21T08:35:26.724Z,36.45
2023-04-21T08:36:29.868Z,36.29
2023-04-21T08:37:27.721Z,36.24
2023-04-21T08:38:26.715Z,36.14
2023-04-21T08:39:27.687Z,36.23
2023-04-21T08:40:27.699Z,36.39
2023-04-21T08:41:27.669Z,36.10
2023-04-21T08:42:27.130Z,36.08
2023-04-21T08:43:26.671Z,35.89
2023-04-21T08:44:27.651Z,35.85
2023-04-21T08:45:27.859Z,35.64
2023-04-21T08:46:27.798Z,35.57
2023-04-21T08:47:27.716Z,34.93
2023-04-21T08:48:26.628Z,34.90
2023-04-21T08:49:26.655Z,34.99
2023-04-21T08:50:27.620Z,35.42
2023-04-21T08:51:26.610Z,35.58
2023-04-21T08:52:26.626Z,35.76
2023-04-21T08:53:26.723Z,36.17
2023-04-21T08:54:29.881Z,36.25
2023-04-21T08:55:27.604Z,36.12
2023-04-21T08:56:27.599Z,36.16
2023-04-21T08:57:27.649Z,35.93
2023-04-21T08:58:27.571Z,35.78
2023-04-21T08:59:27.588Z,35.89
2023-04-21T09:00:26.645Z,36.04
2023-04-21T09:01:26.616Z,35.99
2023-04-21T09:02:26.658Z,35.86
2023-04-21T09:03:26.752Z,36.12
2023-04-21T09:04:28.884Z,35.97
2023-04-21T09:05:27.796Z,35.81
2023-04-21T09:06:27.701Z,35.60
2023-04-21T09:07:27.753Z,35.65
2023-04-21T09:08:26.830Z,35.68
2023-04-21T09:09:26.884Z,35.64
2023-04-21T09:10:27.968Z,35.50
2023-04-21T09:11:27.997Z,35.42
2023-04-21T09:12:28.083Z,35.36
2023-04-21T09:13:28.138Z,35.46
2023-04-21T09:14:28.191Z,35.35
2023-04-21T09:15:28.234Z,35.46
2023-04-21T09:16:28.324Z,35.45
2023-04-21T09:17:28.357Z,35.49
2023-04-21T09:18:28.345Z,35.42
2023-04-21T09:19:28.314Z,35.45
2023-04-21T09:20:28.333Z,35.47
2023-04-21T09:21:30.062Z,35.52
2023-04-21T09:22:27.342Z,35.70
2023-04-21T09:23:28.387Z,35.46
2023-04-21T09:24:28.312Z,35.71
2023-04-21T09:25:28.318Z,35.87
2023-04-21T09:26:28.311Z,35.71
2023-04-21T09:27:28.290Z,35.77
2023-04-21T09:28:28.281Z,35.79
2023-04-21T09:29:28.314Z,35.71
2023-04-21T09:30:28.256Z,35.55
2023-04-21T09:31:28.345Z,35.46
2023-04-21T09:32:28.326Z,35.46
2023-04-21T09:33:30.943Z,35.43
2023-04-21T09:34:28.289Z,35.40
2023-04-21T09:35:28.242Z,35.59
2023-04-21T09:36:28.257Z,35.82
2023-04-21T09:37:28.235Z,36.22
2023-04-21T09:38:28.216Z,36.25
2023-04-21T09:39:42.654Z,36.26
2023-04-21T09:40:28.199Z,36.34
2023-04-21T09:41:28.185Z,36.50
2023-04-21T09:42:28.257Z,36.43
2023-04-21T09:43:28.216Z,36.26
2023-04-21T09:44:28.257Z,36.16
2023-04-21T09:45:36.961Z,36.05
2023-04-21T09:46:28.370Z,36.23
2023-04-21T09:47:28.675Z,36.08
2023-04-21T09:48:28.152Z,35.79
2023-04-21T09:49:28.166Z,35.59
2023-04-21T09:51:01.794Z,35.68
2023-04-21T09:51:37.282Z,35.68
2023-04-21T09:52:28.101Z,35.74
2023-04-21T09:53:28.185Z,35.83
2023-04-21T09:54:29.986Z,35.65
2023-04-21T09:55:28.087Z,35.47
2023-04-21T09:56:28.082Z,35.53
2023-04-21T09:57:28.073Z,35.63
2023-04-21T09:58:27.066Z,35.78
2023-04-21T09:59:28.080Z,35.81
2023-04-21T10:00:28.055Z,35.73
2023-04-21T10:01:27.075Z,35.61
2023-04-21T10:02:28.237Z,35.32
2023-04-21T10:03:28.187Z,35.27
2023-04-21T10:04:27.758Z,35.34
2023-04-21T10:05:27.080Z,35.25
2023-04-21T10:06:28.041Z,35.44
2023-04-21T10:07:28.046Z,35.39
2023-04-21T10:08:28.006Z,35.64
2023-04-21T10:09:27.015Z,35.50
2023-04-21T10:10:27.015Z,35.42
2023-04-21T10:11:27.001Z,35.15
2023-04-21T10:12:26.964Z,35.09
2023-04-21T10:13:27.956Z,35.08
2023-04-21T10:14:27.959Z,34.99
2023-04-21T10:15:27.989Z,34.99
2023-04-21T10:16:28.028Z,34.68
2023-04-21T10:17:27.121Z,34.35
2023-04-21T10:18:26.916Z,34.28
2023-04-21T10:19:27.981Z,34.34
2023-04-21T10:20:27.926Z,34.38
2023-04-21T10:21:27.919Z,34.44
2023-04-21T10:22:26.913Z,34.08
2023-04-21T10:23:27.918Z,34.16
2023-04-21T10:24:27.858Z,34.13
2023-04-21T10:25:28.086Z,33.85
2023-04-21T10:26:27.867Z,34.19
2023-04-21T10:27:27.890Z,34.09
2023-04-21T10:28:27.881Z,33.98
2023-04-21T10:29:26.959Z,33.63
2023-04-21T10:30:28.000Z,33.72
2023-04-21T10:31:28.038Z,33.66
2023-04-21T10:32:28.152Z,33.48
2023-04-21T10:33:27.098Z,33.31
2023-04-21T10:34:27.138Z,33.17
2023-04-21T10:35:28.234Z,33.04
2023-04-21T10:36:27.184Z,32.68
2023-04-21T10:37:28.264Z,32.53
2023-04-21T10:38:27.223Z,32.86
2023-04-21T10:39:28.192Z,32.52
2023-04-21T10:40:42.560Z,31.97
2023-04-21T10:41:28.228Z,31.72
2023-04-21T10:42:28.188Z,32.14
2023-04-21T10:43:28.751Z,32.82
2023-04-21T10:44:27.301Z,32.99
2023-04-21T10:45:28.591Z,33.52
2023-04-21T10:46:28.261Z,33.25
2023-04-21T10:47:27.368Z,33.24
2023-04-21T10:48:27.196Z,33.19
2023-04-21T10:49:27.193Z,33.34
2023-04-21T10:50:28.218Z,33.17
2023-04-21T10:51:28.134Z,33.23
2023-04-21T10:52:28.128Z,33.33
2023-04-21T10:53:27.191Z,32.99
2023-04-21T10:54:27.168Z,33.15
2023-04-21T10:55:28.088Z,33.05
2023-04-21T10:56:27.072Z,32.50
2023-04-21T10:57:28.077Z,32.41
2023-04-21T10:58:27.114Z,32.60
2023-04-21T10:59:27.400Z,32.73
2023-04-21T11:00:28.155Z,32.71
2023-04-21T11:01:27.151Z,32.66
2023-04-21T11:02:28.201Z,32.63
2023-04-21T11:03:28.262Z,32.74
2023-04-21T11:04:28.705Z,32.98
2023-04-21T11:05:28.113Z,33.22
2023-04-21T11:06:28.110Z,33.52
2023-04-21T11:07:27.135Z,33.40
2023-04-21T11:08:28.349Z,32.75
2023-04-21T11:09:28.252Z,32.76
2023-04-21T11:10:27.266Z,32.03
2023-04-21T11:11:28.341Z,32.05
2023-04-21T11:12:27.464Z,32.11
2023-04-21T11:13:28.395Z,31.14
2023-04-21T11:14:27.484Z,31.65
2023-04-21T11:15:27.506Z,31.38
2023-04-21T11:16:28.549Z,31.22
2023-04-21T11:17:27.721Z,31.27
2023-04-21T11:18:28.646Z,30.90
2023-04-21T11:19:27.650Z,31.40
2023-04-21T11:20:27.697Z,30.53
2023-04-21T11:21:28.727Z,30.68
2023-04-21T11:22:28.753Z,30.64
2023-04-21T11:23:28.353Z,30.95
2023-04-21T11:24:27.921Z,31.11
2023-04-21T11:25:28.962Z,31.36
2023-04-21T11:26:28.927Z,31.12
2023-04-21T11:27:28.967Z,30.79
2023-04-21T11:28:27.967Z,30.97
2023-04-21T11:29:27.940Z,31.46
2023-04-21T11:30:27.999Z,31.61
2023-04-21T11:31:29.189Z,31.74
2023-04-21T11:32:29.351Z,31.66
2023-04-21T11:33:28.120Z,31.54
2023-04-21T11:34:28.386Z,31.34
2023-04-21T11:35:28.190Z,31.70
2023-04-21T11:36:29.204Z,31.32
2023-04-21T11:37:29.256Z,31.48
2023-04-21T11:38:29.672Z,31.67
2023-04-21T11:39:29.297Z,31.63
2023-04-21T11:40:29.313Z,31.63
2023-04-21T11:41:28.416Z,31.26
2023-04-21T11:42:28.386Z,31.34
2023-04-21T11:43:29.410Z,31.42
2023-04-21T11:44:28.391Z,31.43
2023-04-21T11:45:29.421Z,31.49
2023-04-21T11:46:29.480Z,31.56
2023-04-21T11:47:29.507Z,31.56
2023-04-21T11:48:28.517Z,31.57
2023-04-21T11:49:28.533Z,31.59
2023-04-21T11:50:28.539Z,31.57
2023-04-21T11:51:28.561Z,31.53
2023-04-21T11:52:29.658Z,31.47
2023-04-21T11:53:29.624Z,31.44
2023-04-21T11:54:28.663Z,31.28
2023-04-21T11:55:29.668Z,31.21
2023-04-21T11:56:29.691Z,31.23
2023-04-21T11:57:29.701Z,31.25
2023-04-21T11:58:29.725Z,31.19
2023-04-21T11:59:28.718Z,31.20
2023-04-21T12:00:28.789Z,31.13
2023-04-21T12:01:29.750Z,31.14
2023-04-21T12:02:28.904Z,31.07
2023-04-21T12:03:29.879Z,31.07
2023-04-21T12:04:29.891Z,31.06
2023-04-21T12:05:28.785Z,30.99
2023-04-21T12:06:29.788Z,31.02
2023-04-21T12:07:28.788Z,31.07
2023-04-21T12:08:28.774Z,30.91
2023-04-21T12:09:28.770Z,30.91
2023-04-21T12:10:28.765Z,30.86
2023-04-21T12:11:29.767Z,30.91
2023-04-21T12:12:28.758Z,30.88
2023-04-21T12:13:28.862Z,30.80
2023-04-21T12:14:28.780Z,30.94
2023-04-21T12:15:28.776Z,30.86
2023-04-21T12:16:29.875Z,30.71
2023-04-21T12:17:28.856Z,30.70
2023-04-21T12:18:29.893Z,30.62
2023-04-21T12:19:29.964Z,30.63
2023-04-21T12:20:30.388Z,30.57
2023-04-21T12:21:29.140Z,30.52
2023-04-21T12:22:30.153Z,30.63
2023-04-21T12:23:29.241Z,30.55
2023-04-21T12:24:29.279Z,30.60
2023-04-21T12:25:29.382Z,30.57
2023-04-21T12:26:29.399Z,30.62
2023-04-21T12:27:30.464Z,30.56
2023-04-21T12:28:30.560Z,30.49
2023-04-21T12:29:30.620Z,30.44
2023-04-21T12:30:30.780Z,30.38
2023-04-21T12:31:30.758Z,30.34
2023-04-21T12:32:29.771Z,30.35
2023-04-21T12:33:30.882Z,30.22
2023-04-21T12:34:29.908Z,30.14
2023-04-21T12:35:30.920Z,30.10
2023-04-21T12:36:30.065Z,30.08
2023-04-21T12:37:31.089Z,30.06
2023-04-21T12:38:30.204Z,29.97
2023-04-21T12:39:31.597Z,29.99
2023-04-21T12:40:31.162Z,29.94
2023-04-21T12:41:30.223Z,29.94
2023-04-21T12:42:31.257Z,30.18
2023-04-21T12:43:31.312Z,30.13
2023-04-21T12:44:30.368Z,30.29
2023-04-21T12:45:31.478Z,30.01
2023-04-21T12:46:30.489Z,30.00
2023-04-21T12:47:30.527Z,30.13
2023-04-21T12:48:30.598Z,30.14
2023-04-21T12:49:31.818Z,29.99
2023-04-21T12:50:31.693Z,29.95
2023-04-21T12:51:31.711Z,29.94
2023-04-21T12:52:31.758Z,29.20
2023-04-21T12:53:31.401Z,30.34
2023-04-21T12:54:31.801Z,29.27
2023-04-21T12:55:30.828Z,28.82
2023-04-21T12:56:30.896Z,28.87
2023-04-21T12:57:31.904Z,29.37
2023-04-21T12:58:31.962Z,29.86
2023-04-21T12:59:31.239Z,29.64
2023-04-21T13:00:32.060Z,29.95
2023-04-21T13:01:32.134Z,30.04
2023-04-21T13:02:31.272Z,30.00
2023-04-21T13:03:32.361Z,30.06
2023-04-21T13:04:32.653Z,29.95
2023-04-21T13:05:32.239Z,29.82
2023-04-21T13:06:31.203Z,29.95
2023-04-21T13:07:32.235Z,29.83
2023-04-21T13:08:31.255Z,29.70
2023-04-21T13:09:32.522Z,29.75
2023-04-21T13:10:31.251Z,29.48
2023-04-21T13:11:31.250Z,29.36
2023-04-21T13:12:31.268Z,29.57
2023-04-21T13:13:32.252Z,29.62
2023-04-21T13:14:32.273Z,29.57
2023-04-21T13:15:32.225Z,29.39
2023-04-21T13:16:32.354Z,29.54
2023-04-21T13:17:32.317Z,29.47
2023-04-21T13:18:31.340Z,29.50
2023-04-21T13:19:32.795Z,29.48
2023-04-21T13:20:32.448Z,29.36
2023-04-21T13:21:32.527Z,29.32
2023-04-21T13:22:31.576Z,29.28
2023-04-21T13:23:32.649Z,29.30
2023-04-21T13:24:32.749Z,29.29
2023-04-21T13:25:32.758Z,29.44
2023-04-21T13:26:32.779Z,29.36
2023-04-21T13:27:32.917Z,29.36
2023-04-21T13:28:31.951Z,29.44
2023-04-21T13:29:33.272Z,29.45
2023-04-21T13:30:32.987Z,29.51
2023-04-21T13:31:32.168Z,29.38
2023-04-21T13:32:33.186Z,29.48
2023-04-21T13:33:32.178Z,29.40
2023-04-21T13:34:32.470Z,29.47
2023-04-21T13:35:33.233Z,29.53
2023-04-21T13:36:33.275Z,29.56
2023-04-21T13:37:32.341Z,29.46
2023-04-21T13:38:32.701Z,29.68
2023-04-21T13:39:32.757Z,28.25
2023-04-21T13:40:33.464Z,26.96
2023-04-21T13:41:33.527Z,26.41
2023-04-21T13:42:33.478Z,26.17
2023-04-21T13:43:32.480Z,25.73
2023-04-21T13:44:32.493Z,25.01
2023-04-21T13:45:32.519Z,24.69
2023-04-21T13:46:32.571Z,24.40
2023-04-21T13:47:33.577Z,24.09
2023-04-21T13:48:33.831Z,24.04
2023-04-21T13:49:33.887Z,23.93
2023-04-21T13:50:32.524Z,23.79
2023-04-21T13:51:32.525Z,23.82
2023-04-21T13:52:32.572Z,23.90
2023-04-21T13:53:33.047Z,25.29
2023-04-21T13:54:32.829Z,24.26
2023-04-21T13:55:32.619Z,23.94
2023-04-21T13:56:32.670Z,23.92
2023-04-21T13:57:33.692Z,23.81
2023-04-21T13:58:32.748Z,23.82
2023-04-21T13:59:33.999Z,23.95
2023-04-21T14:00:32.770Z,24.22
2023-04-21T14:01:32.888Z,24.07
2023-04-21T14:02:33.168Z,23.86
2023-04-21T14:03:34.048Z,23.70
2023-04-21T14:04:34.188Z,23.83
2023-04-21T14:05:34.417Z,24.03
2023-04-21T14:06:33.087Z,23.74
2023-04-21T14:07:33.259Z,23.96
2023-04-21T14:08:34.184Z,24.01
2023-04-21T14:09:33.531Z,24.13
2023-04-21T14:10:33.323Z,24.34
2023-04-21T14:11:34.335Z,24.30
2023-04-21T14:12:34.369Z,24.43
2023-04-21T14:13:39.823Z,24.29
2023-04-21T14:15:33.484Z,24.72
2023-04-21T14:16:33.477Z,24.55
2023-04-21T14:17:34.419Z,24.41
2023-04-21T14:18:34.450Z,24.70
2023-04-21T14:19:34.773Z,24.52
2023-04-21T14:20:33.423Z,24.42
2023-04-21T14:21:34.389Z,24.19
2023-04-21T14:22:33.359Z,24.23
2023-04-21T14:23:33.390Z,24.38
2023-04-21T14:24:34.377Z,24.32
2023-04-21T14:25:34.368Z,24.19
2023-04-21T14:26:34.313Z,23.65
2023-04-21T14:27:34.419Z,23.76
2023-04-21T14:28:33.343Z,23.39
2023-04-21T14:29:34.575Z,23.50
2023-04-21T14:30:34.385Z,23.19
2023-04-21T14:31:34.307Z,23.56
2023-04-21T14:32:33.801Z,23.07
2023-04-21T14:33:34.323Z,22.98
2023-04-21T14:34:34.290Z,23.01
2023-04-21T14:35:34.281Z,23.38
2023-04-21T14:36:34.356Z,23.39
2023-04-21T14:37:33.340Z,23.34
2023-04-21T14:38:34.542Z,23.88
2023-04-21T14:39:33.551Z,23.35
2023-04-21T14:40:33.494Z,23.66
2023-04-21T14:41:33.448Z,23.78
2023-04-21T14:42:33.438Z,23.14
2023-04-21T14:43:34.466Z,23.17
2023-04-21T14:44:34.481Z,23.38
2023-04-21T14:45:34.481Z,23.55
2023-04-21T14:46:33.639Z,23.56
2023-04-21T14:47:33.611Z,23.70
2023-04-21T14:48:34.622Z,23.38
2023-04-21T14:49:34.903Z,23.05
2023-04-21T14:50:33.733Z,22.84
2023-04-21T14:51:34.800Z,22.85
2023-04-21T14:52:34.768Z,22.69
2023-04-21T14:53:34.851Z,22.45
2023-04-21T14:54:33.768Z,22.45
2023-04-21T14:55:34.808Z,22.58
2023-04-21T14:56:34.819Z,22.84
2023-04-21T14:57:33.804Z,23.01
2023-04-21T14:58:33.881Z,23.03
2023-04-21T14:59:34.042Z,23.08
2023-04-21T15:00:35.015Z,23.36
2023-04-21T15:01:35.037Z,23.33
2023-04-21T15:02:35.046Z,23.16
2023-04-21T15:03:34.080Z,22.96
2023-04-21T15:04:34.216Z,22.88
2023-04-21T15:05:35.092Z,22.93
2023-04-21T15:06:34.079Z,22.79
2023-04-21T15:07:35.115Z,22.94
2023-04-21T15:08:35.116Z,23.50
2023-04-21T15:09:34.242Z,23.49
2023-04-21T15:10:34.092Z,23.56
2023-04-21T15:11:34.083Z,23.51
2023-04-21T15:12:36.374Z,23.65
2023-04-21T15:13:35.160Z,23.63
2023-04-21T15:14:34.235Z,23.82
2023-04-21T15:15:35.248Z,23.91
2023-04-21T15:16:35.362Z,24.21
2023-04-21T15:17:34.427Z,24.13
2023-04-21T15:18:34.450Z,24.08
2023-04-21T15:19:35.740Z,24.21
2023-04-21T15:20:44.472Z,24.40
2023-04-21T15:21:35.521Z,24.38
2023-04-21T15:22:35.533Z,24.88
2023-04-21T15:23:34.559Z,24.72
2023-04-21T15:24:34.616Z,24.87
2023-04-21T15:25:34.506Z,24.80
2023-04-21T15:26:35.524Z,24.72
2023-04-21T15:27:34.513Z,25.12
2023-04-21T15:28:35.509Z,25.49
2023-04-21T15:29:34.672Z,25.35
2023-04-21T16:03:59.763Z,28.33
2023-04-21T16:05:00.758Z,27.28
2023-04-21T16:06:00.798Z,27.34
2023-04-21T16:06:59.615Z,27.13
2023-04-21T16:07:59.617Z,27.21
2023-04-21T16:08:59.695Z,27.22
2023-04-21T16:09:59.668Z,27.07
2023-04-21T16:11:00.913Z,27.01
2023-04-21T16:11:59.718Z,26.98
2023-04-21T16:12:59.766Z,26.92
2023-04-21T16:14:00.864Z,26.84
2023-04-21T16:15:09.297Z,26.89
2023-04-21T16:16:00.882Z,26.85
2023-04-21T16:16:59.843Z,26.75
2023-04-21T16:18:00.852Z,26.74
2023-04-21T16:18:59.763Z,26.77
2023-04-21T16:20:01.019Z,26.80
2023-04-21T16:21:00.778Z,26.90
2023-04-21T16:22:00.746Z,26.72
2023-04-21T16:22:59.728Z,26.77
2023-04-21T16:23:59.758Z,26.82
2023-04-21T16:25:00.909Z,26.87
2023-04-21T16:26:00.753Z,26.89
2023-04-21T16:26:59.704Z,26.77
2023-04-21T16:28:00.727Z,26.50
2023-04-21T16:29:00.670Z,26.52
2023-04-21T16:30:00.701Z,26.49
2023-04-21T16:31:00.655Z,26.57
2023-04-21T16:31:59.718Z,26.61
2023-04-21T16:33:00.651Z,26.53
2023-04-21T16:34:00.789Z,26.36
2023-04-21T16:35:00.713Z,26.29
2023-04-21T16:36:00.680Z,26.40
2023-04-21T16:37:00.664Z,26.32
2023-04-21T16:37:59.607Z,26.37
2023-04-21T16:39:00.594Z,26.45
2023-04-21T16:40:00.688Z,26.65
2023-04-21T16:40:59.639Z,26.52
2023-04-21T16:42:00.585Z,26.48
2023-04-21T16:42:59.578Z,26.45
2023-04-21T16:43:59.624Z,26.30
2023-04-21T16:45:00.595Z,26.24
2023-04-21T16:46:00.600Z,26.22
2023-04-21T16:46:59.594Z,26.27
2023-04-21T16:48:00.723Z,26.18
2023-04-21T16:48:59.623Z,26.34
2023-04-21T16:49:59.519Z,26.30
2023-04-21T16:50:59.549Z,26.36
2023-04-21T16:52:00.547Z,26.30
2023-04-21T16:53:00.535Z,26.18
2023-04-21T16:54:00.511Z,26.06
2023-04-21T16:55:00.491Z,26.31
2023-04-21T16:55:59.508Z,26.46
2023-04-21T16:57:00.482Z,26.39
2023-04-21T16:57:59.465Z,26.42
2023-04-21T16:59:00.448Z,26.30
2023-04-21T16:59:59.450Z,26.40
2023-04-21T17:00:59.586Z,26.33
2023-04-21T17:01:59.540Z,26.31
2023-04-21T17:03:00.708Z,26.34
2023-04-21T17:04:00.766Z,26.33
2023-04-21T17:04:59.620Z,26.15
2023-04-21T17:05:59.679Z,26.31
2023-04-21T17:07:00.690Z,26.65
2023-04-21T17:07:59.971Z,26.81
2023-04-21T17:09:00.775Z,26.73
2023-04-21T17:09:59.784Z,26.61
2023-04-21T17:11:01.035Z,26.55
2023-04-21T17:12:00.830Z,26.40
2023-04-21T17:12:59.838Z,26.00
2023-04-21T17:13:59.865Z,25.46
2023-04-21T17:15:00.880Z,24.98
2023-04-21T17:16:01.044Z,24.68
2023-04-21T17:17:01.096Z,25.08
2023-04-21T17:18:00.126Z,25.33
2023-04-21T17:19:01.108Z,25.76
2023-04-21T17:20:00.168Z,26.05
2023-04-21T17:21:00.146Z,26.10
2023-04-21T17:22:01.128Z,26.25
2023-04-21T17:23:00.156Z,26.28
2023-04-21T17:24:01.187Z,26.35
2023-04-21T17:25:00.359Z,26.44
2023-04-21T17:26:01.226Z,26.45
2023-04-21T17:27:01.228Z,26.53
2023-04-21T17:28:00.253Z,26.60
2023-04-21T17:29:00.296Z,26.79
2023-04-21T17:30:00.354Z,26.78
2023-04-21T17:31:14.334Z,26.94
2023-04-21T17:32:01.391Z,26.94
2023-04-21T17:33:15.560Z,26.86
2023-04-21T17:34:01.349Z,27.01
2023-04-21T17:35:01.368Z,26.99
2023-04-21T17:36:03.356Z,27.07
2023-04-21T17:37:00.321Z,27.06
2023-04-21T17:38:01.316Z,27.09
2023-04-21T17:39:01.308Z,27.22
2023-04-21T17:40:02.436Z,27.25
2023-04-21T17:41:00.325Z,27.21
2023-04-21T17:42:00.307Z,27.34
2023-04-21T17:43:01.293Z,27.27
2023-04-21T17:44:01.282Z,27.37
2023-04-21T17:45:00.281Z,27.39
2023-04-21T17:46:01.305Z,27.49
2023-04-21T17:47:00.248Z,27.54
2023-04-21T17:48:00.340Z,27.53
2023-04-21T17:49:00.244Z,27.60
2023-04-21T17:50:00.323Z,27.55
2023-04-21T17:51:01.227Z,27.59
2023-04-21T17:52:00.214Z,27.68
2023-04-21T17:53:01.198Z,27.63
2023-04-21T17:54:01.222Z,27.60
2023-04-21T17:55:00.206Z,27.58
2023-04-21T17:56:00.251Z,27.59
2023-04-21T17:57:01.189Z,27.64
2023-04-21T17:58:00.191Z,27.78
2023-04-21T17:59:01.172Z,27.73
2023-04-21T18:00:01.164Z,27.77
2023-04-21T18:01:01.161Z,27.84
2023-04-21T18:02:01.316Z,27.79
2023-04-21T18:03:01.235Z,27.87
2023-04-21T18:04:01.590Z,27.83
2023-04-21T18:05:01.171Z,27.84
2023-04-21T18:06:01.138Z,27.96
2023-04-21T18:07:01.121Z,27.94
2023-04-21T18:08:01.098Z,27.91
2023-04-21T18:09:01.101Z,28.05
2023-04-21T18:10:01.082Z,27.99
2023-04-21T18:11:01.117Z,27.97
2023-04-21T18:12:00.152Z,28.01
2023-04-21T18:13:01.123Z,28.07
2023-04-21T18:14:01.052Z,28.15
2023-04-21T18:15:01.046Z,28.12
2023-04-21T18:16:01.078Z,28.12
2023-04-21T18:17:01.049Z,28.12
2023-04-21T18:18:00.144Z,28.05
2023-04-21T18:19:01.015Z,28.16
2023-04-21T18:20:01.015Z,28.16
2023-04-21T18:21:01.035Z,28.21
2023-04-21T18:21:59.986Z,28.23
2023-04-21T18:22:59.990Z,28.21
2023-04-21T18:23:59.961Z,28.24
2023-04-21T18:25:00.995Z,28.22
2023-04-21T18:26:00.986Z,28.33
2023-04-21T18:27:00.965Z,28.40
2023-04-21T18:27:59.969Z,28.47
2023-04-21T18:28:59.971Z,28.54
2023-04-21T18:29:59.931Z,28.40